ADDS METAR Data INFO
IDs: Format: Raw Decoded Include TAF

Data at: 1741 UTC 15 Dec 2017

KTOB 151735Z AUTO 27005KT 7SM OVC005 M02/M03 A2984 RMK AO2
KTOB 151715Z AUTO 27004KT 7SM OVC005 M02/M03 A2984 RMK AO2
KTOB 151655Z AUTO 29004KT 7SM OVC005 M02/M03 A2985 RMK AO2
KTOB 151635Z AUTO 29006KT 10SM OVC005 M03/M03 A2986 RMK AO2
KTOB 151615Z AUTO 28005KT 10SM OVC007 M03/M03 A2986 RMK AO2
KTOB 151555Z AUTO 26005KT 10SM OVC007 M03/M04 A2986 RMK AO2
KTOB 151535Z AUTO 25005KT 10SM -SN OVC007 M03/M04 A2986 RMK AO2
KTOB 151515Z AUTO 25006KT 10SM -SN BKN007 OVC013 M03/M04 A2986 RMK AO2
KTOB 151455Z AUTO 24005KT 5SM -SN SCT004 BKN014 OVC050 M04/M04 A2986 RMK AO2
KTOB 151435Z AUTO 24006KT 2SM -SN SCT005 BKN010 OVC014 M04/M04 A2986 RMK AO2
KTOB 151415Z AUTO 24005KT 3SM -SN SCT009 SCT015 OVC035 M04/M05 A2986 RMK AO2
KTOB 151355Z AUTO 23006KT 3SM -SN SCT003 BKN020 OVC035 M04/M05 A2986 RMK AO2
KTOB 151335Z AUTO 23006KT 3SM -SN SCT005 BKN010 OVC024 M04/M05 A2986 RMK AO2
KTOB 151315Z AUTO 23007KT 4SM -SN SCT005 SCT014 OVC033 M05/M06 A2987 RMK AO2
KTOB 151255Z AUTO 21008KT 4SM -SN SCT019 SCT025 OVC033 M05/M06 A2987 RMK AO2
KTOB 151235Z AUTO 22007KT 7SM UP SCT010 SCT027 OVC033 M05/M06 A2988 RMK AO2
KTOB 151215Z AUTO 23007KT 5SM UP SCT012 SCT019 OVC031 M05/M06 A2989 RMK AO2
KTOB 151155Z AUTO 22006KT 7SM SCT013 BKN021 OVC041 M06/M06 A2989 RMK AO2
KTOB 151135Z AUTO 22006KT 10SM SCT024 OVC038 M06/M07 A2989 RMK AO2
KTOB 151115Z AUTO 23004KT 10SM BKN012 BKN025 OVC037 M06/M07 A2989 RMK AO2
KTOB 151055Z AUTO 25005KT 10SM OVC014 M06/M07 A2990 RMK AO2
KTOB 151035Z AUTO 24004KT 10SM OVC016 M06/M07 A2990 RMK AO2
KTOB 151015Z AUTO 25007KT 10SM BKN018 OVC023 M06/M08 A2991 RMK AO2
KTOB 150955Z AUTO 26008KT 10SM BKN025 BKN040 OVC047 M06/M08 A2992 RMK AO2
KTOB 150935Z AUTO 28006KT 10SM BKN027 BKN035 OVC041 M06/M08 A2992 RMK AO2
KTOB 150915Z AUTO 28008KT 10SM BKN031 OVC040 M06/M08 A2993 RMK AO2
KTOB 150855Z AUTO 27007KT 10SM OVC040 M06/M08 A2993 RMK AO2
KTOB 150835Z AUTO 28009KT 10SM OVC038 M06/M08 A2994 RMK AO2
KTOB 150815Z AUTO 28012KT 10SM OVC038 M06/M08 A2994 RMK AO2
KTOB 150755Z AUTO 28010KT 10SM OVC038 M06/M08 A2994 RMK AO2
KTOB 150735Z AUTO 28010KT 10SM OVC036 M06/M08 A2994 RMK AO2
KTOB 150715Z AUTO 28010KT 10SM -SN OVC040 M06/M08 A2994 RMK AO2
KTOB 150655Z AUTO 28012KT 10SM -SN OVC044 M06/M08 A2995 RMK AO2
KTOB 150635Z AUTO 28012KT 10SM -SN OVC044 M06/M08 A2995 RMK AO2
KTOB 150615Z AUTO 27011KT 10SM OVC042 M06/M08 A2995 RMK AO2
KTOB 150555Z AUTO 27011KT 10SM -SN SCT020 OVC042 M06/M08 A2996 RMK AO2
KTOB 150535Z AUTO 28009KT 10SM -SN OVC022 M06/M08 A2997 RMK AO2
KTOB 150515Z AUTO 29010KT 10SM OVC022 M06/M09 A2997 RMK AO2
KTOB 150455Z AUTO 29010KT 10SM OVC024 M06/M09 A2997 RMK AO2
KTOB 150435Z AUTO 30009KT 10SM SCT013 OVC024 M06/M08 A2998 RMK AO2
KTOB 150415Z AUTO 29009KT 10SM OVC015 M06/M08 A2998 RMK AO2
KTOB 150355Z AUTO 29009KT 10SM OVC015 M06/M08 A2999 RMK AO2
KTOB 150335Z AUTO 28007KT 10SM OVC017 M06/M08 A2998 RMK AO2
KTOB 150315Z AUTO 28008KT 10SM OVC017 M06/M08 A2999 RMK AO2
KTOB 150255Z AUTO 28006KT 10SM OVC019 M06/M08 A2999 RMK AO2
KTOB 150235Z AUTO 28007KT 10SM OVC019 M06/M08 A3000 RMK AO2
KTOB 150215Z AUTO 29005KT 10SM OVC019 M06/M08 A3000 RMK AO2
KTOB 150155Z AUTO 30008KT 10SM OVC019 M06/M08 A3000 RMK AO2
KTOB 150135Z AUTO 30009KT 10SM OVC019 M06/M08 A3000 RMK AO2
KTOB 150115Z AUTO 29010KT 10SM OVC019 M06/M08 A3000 RMK AO2
KTOB 150055Z AUTO 29010KT 10SM BKN018 OVC023 M06/M08 A3001 RMK AO2
KTOB 150035Z AUTO 28010KT 10SM SCT014 BKN025 OVC030 M06/M08 A3000 RMK AO2
KTOB 150015Z AUTO 29009KT 10SM BKN014 OVC033 M06/M08 A3001 RMK AO2
KTOB 142355Z AUTO 28010G16KT 10SM OVC010 M06/M08 A3000 RMK AO2
KTOB 142335Z AUTO 27010KT 10SM OVC008 M06/M07 A2999 RMK AO2
KTOB 142315Z AUTO 26009KT 10SM OVC010 M06/M08 A2999 RMK AO2
KTOB 142255Z AUTO 27010KT 10SM OVC010 M06/M08 A3000 RMK AO2
KTOB 142235Z AUTO 26008KT 10SM OVC012 M06/M08 A3000 RMK AO2
KTOB 142215Z AUTO 25010KT 10SM OVC014 M06/M08 A2999 RMK AO2
KTOB 142155Z AUTO 25008KT 10SM OVC014 M06/M08 A2999 RMK AO2
KTOB 142135Z AUTO 25007KT 10SM -SN OVC014 M06/M08 A3000 RMK AO2
KTOB 142115Z AUTO 27008KT 7SM -SN OVC014 M06/M08 A3000 RMK AO2
KTOB 142055Z AUTO 26007KT 10SM OVC016 M06/M08 A3000 RMK AO2
KTOB 142035Z AUTO 25009KT 10SM OVC016 M06/M09 A3000 RMK AO2
KTOB 142015Z AUTO 27009KT 10SM OVC018 M06/M09 A3000 RMK AO2
KTOB 141955Z AUTO 26008KT 10SM OVC020 M06/M09 A3000 RMK AO2
KTOB 141935Z AUTO 25010KT 10SM OVC020 M06/M09 A3000 RMK AO2
KTOB 141915Z AUTO 25005KT 10SM OVC018 M06/M09 A3000 RMK AO2
KTOB 141855Z AUTO 24007KT 10SM BKN018 M06/M09 A3001 RMK AO2
KTOB 141835Z AUTO 23004KT 10SM SCT013 BKN018 M06/M09 A3001 RMK AO2
KTOB 141815Z AUTO 25007KT 10SM SCT012 M06/M09 A3001 RMK AO2
KTOB 141755Z AUTO 24006KT 10SM SCT012 M06/M08 A3001 RMK AO2
KTOB 141735Z AUTO 23007KT 10SM CLR M06/M09 A3002 RMK AO2
KTOB 141715Z AUTO 22006KT 10SM CLR M07/M09 A3002 RMK AO2
KTOB 141655Z AUTO 21007KT 10SM CLR M07/M09 A3002 RMK AO2
KTOB 141635Z AUTO 19006KT 7SM CLR M07/M09 A3003 RMK AO2
KTOB 141615Z AUTO 18005KT 5SM BR SCT002 M08/M09 A3003 RMK AO2
KTOB 141555Z AUTO 21003KT 3SM BR SCT002 M08/M09 A3003 RMK AO2
KTOB 141535Z AUTO 20003KT 4SM BR CLR M09/M10 A3003 RMK AO2
KTOB 141515Z AUTO 00000KT 4SM BR CLR M10/M11 A3002 RMK AO2
KTOB 141455Z AUTO 00000KT 4SM BR CLR M11/M12 A3002 RMK AO2
KTOB 141435Z AUTO 00000KT 5SM BR CLR M12/M13 A3001 RMK AO2
KTOB 141415Z AUTO 00000KT 7SM CLR M14/M15 A3001 RMK AO2
KTOB 141355Z AUTO 00000KT 5SM BR CLR M14/M16 A3000 RMK AO2
KTOB 141335Z AUTO 20003KT 7SM CLR M14/M16 A3000 RMK AO2
KTOB 141315Z AUTO 00000KT 5SM BR SCT090 M14/M16 A3000 RMK AO2
KTOB 141255Z AUTO 00000KT 4SM BR CLR M13/M15 A3000 RMK AO2
KTOB 141235Z AUTO 00000KT 3SM BR CLR M13/M14 A3000 RMK AO2
KTOB 141215Z AUTO 00000KT 5SM BR CLR M13/M15 A2999 RMK AO2
KTOB 141155Z AUTO 00000KT 7SM SCT090 M13/M14 A2999 RMK AO2
KTOB 141135Z AUTO 00000KT 7SM SCT090 M12/M14 A2999 RMK AO2
KTOB 141115Z AUTO 00000KT 7SM CLR M12/M13 A2999 RMK AO2
KTOB 141055Z AUTO 34004KT 7SM CLR M12/M13 A2998 RMK AO2
KTOB 141035Z AUTO 33004KT 5SM BR CLR M12/M13 A2997 RMK AO2
KTOB 141015Z AUTO 31005KT 7SM CLR M11/M12 A2997 RMK AO2
KTOB 140955Z AUTO 30005KT 7SM SCT095 M11/M12 A2997 RMK AO2
KTOB 140935Z AUTO 30003KT 7SM SCT001 SCT090 M12/M14 A2997 RMK AO2
KTOB 140915Z AUTO 26003KT 3/4SM -SN BKN001 BKN100 M13/M15 A2996 RMK AO2
KTOB 140855Z AUTO 30003KT 7SM CLR M11/M12 A2996 RMK AO2
KTOB 140835Z AUTO 00000KT 7SM CLR M12/M14 A2996 RMK AO2
KTOB 140815Z AUTO 29003KT 1SM -SN BKN001 M13/M14 A2996 RMK AO2 VIS 1/2V5
KTOB 140755Z AUTO 26003KT 2 1/2SM -SN SCT085 M13/M14 A2996 RMK AO2 VIS 3/4V5
KTOB 140735Z AUTO 28004KT 10SM CLR M11/M12 A2996 RMK AO2
KTOB 140715Z AUTO 29005KT 10SM CLR M11/M12 A2995 RMK AO2
KTOB 140655Z AUTO 32006KT 10SM SCT085 M10/M12 A2995 RMK AO2
KTOB 140635Z AUTO 32006KT 10SM CLR M10/M12 A2994 RMK AO2
KTOB 140615Z AUTO 32004KT 10SM SCT095 M10/M11 A2993 RMK AO2
KTOB 140555Z AUTO 33004KT 10SM CLR M10/M11 A2993 RMK AO2